sensor_id;sensor_type;location;lat;lon;timestamp;P1;durP1;ratioP1;P2;durP2;ratioP2
66327;SDS011;53133;52.862;6.602;2022-09-02T00:01:47;2.58;;;1.33;;
66327;SDS011;53133;52.862;6.602;2022-09-02T00:04:15;1.98;;;1.20;;
66327;SDS011;53133;52.862;6.602;2022-09-02T00:06:43;1.63;;;1.23;;
66327;SDS011;53133;52.862;6.602;2022-09-02T00:09:11;2.25;;;1.45;;
66327;SDS011;53133;52.862;6.602;2022-09-02T00:11:39;4.90;;;1.45;;
66327;SDS011;53133;52.862;6.602;2022-09-02T00:14:07;2.35;;;1.13;;
66327;SDS011;53133;52.862;6.602;2022-09-02T00:16:35;2.17;;;1.38;;
66327;SDS011;53133;52.862;6.602;2022-09-02T00:19:02;3.60;;;1.33;;
66327;SDS011;53133;52.862;6.602;2022-09-02T00:21:29;1.52;;;1.35;;
66327;SDS011;53133;52.862;6.602;2022-09-02T00:23:57;4.00;;;1.30;;
66327;SDS011;53133;52.862;6.602;2022-09-02T00:26:23;2.42;;;1.33;;
66327;SDS011;53133;52.862;6.602;2022-09-02T00:28:48;4.47;;;1.40;;
66327;SDS011;53133;52.862;6.602;2022-09-02T00:31:14;1.77;;;1.38;;
66327;SDS011;53133;52.862;6.602;2022-09-02T00:33:41;5.38;;;1.48;;
66327;SDS011;53133;52.862;6.602;2022-09-02T00:36:07;3.50;;;1.20;;
66327;SDS011;53133;52.862;6.602;2022-09-02T00:38:33;3.45;;;1.30;;
66327;SDS011;53133;52.862;6.602;2022-09-02T00:41:01;3.50;;;1.33;;
66327;SDS011;53133;52.862;6.602;2022-09-02T00:43:40;2.08;;;1.45;;
66327;SDS011;53133;52.862;6.602;2022-09-02T00:46:15;1.67;;;1.30;;
66327;SDS011;53133;52.862;6.602;2022-09-02T00:48:44;1.30;;;1.20;;
66327;SDS011;53133;52.862;6.602;2022-09-02T00:51:19;7.88;;;1.60;;
66327;SDS011;53133;52.862;6.602;2022-09-02T00:53:46;3.22;;;1.60;;
66327;SDS011;53133;52.862;6.602;2022-09-02T00:56:14;1.83;;;1.10;;
66327;SDS011;53133;52.862;6.602;2022-09-02T00:58:47;1.90;;;1.40;;
66327;SDS011;53133;52.862;6.602;2022-09-02T01:01:14;1.48;;;1.27;;
66327;SDS011;53133;52.862;6.602;2022-09-02T01:03:40;1.25;;;1.10;;
66327;SDS011;53133;52.862;6.602;2022-09-02T01:06:06;5.88;;;1.60;;
66327;SDS011;53133;52.862;6.602;2022-09-02T01:08:34;1.48;;;1.20;;
66327;SDS011;53133;52.862;6.602;2022-09-02T01:11:03;2.90;;;1.20;;
66327;SDS011;53133;52.862;6.602;2022-09-02T01:13:34;2.92;;;1.30;;
66327;SDS011;53133;52.862;6.602;2022-09-02T01:16:08;2.10;;;1.35;;
66327;SDS011;53133;52.862;6.602;2022-09-02T01:18:39;1.40;;;1.30;;
66327;SDS011;53133;52.862;6.602;2022-09-02T01:21:09;2.30;;;1.30;;
66327;SDS011;53133;52.862;6.602;2022-09-02T01:23:35;2.67;;;1.50;;
66327;SDS011;53133;52.862;6.602;2022-09-02T01:26:02;1.60;;;1.33;;
66327;SDS011;53133;52.862;6.602;2022-09-02T01:28:29;4.15;;;1.65;;
66327;SDS011;53133;52.862;6.602;2022-09-02T01:30:57;8.38;;;1.60;;
66327;SDS011;53133;52.862;6.602;2022-09-02T01:33:23;1.63;;;1.40;;
66327;SDS011;53133;52.862;6.602;2022-09-02T01:35:49;3.17;;;1.60;;
66327;SDS011;53133;52.862;6.602;2022-09-02T01:38:16;2.70;;;1.45;;
66327;SDS011;53133;52.862;6.602;2022-09-02T01:40:43;3.15;;;1.42;;
66327;SDS011;53133;52.862;6.602;2022-09-02T01:43:10;1.95;;;1.50;;
66327;SDS011;53133;52.862;6.602;2022-09-02T01:45:38;1.67;;;1.58;;
66327;SDS011;53133;52.862;6.602;2022-09-02T01:48:06;1.67;;;1.25;;
66327;SDS011;53133;52.862;6.602;2022-09-02T01:50:32;1.83;;;1.40;;
66327;SDS011;53133;52.862;6.602;2022-09-02T01:52:59;4.03;;;1.40;;
66327;SDS011;53133;52.862;6.602;2022-09-02T01:55:28;2.72;;;1.48;;
66327;SDS011;53133;52.862;6.602;2022-09-02T01:57:55;2.65;;;1.45;;
66327;SDS011;53133;52.862;6.602;2022-09-02T02:00:21;3.78;;;1.50;;
66327;SDS011;53133;52.862;6.602;2022-09-02T02:02:47;1.48;;;1.38;;
66327;SDS011;53133;52.862;6.602;2022-09-02T02:05:13;2.65;;;1.50;;
66327;SDS011;53133;52.862;6.602;2022-09-02T02:07:40;2.17;;;1.50;;
66327;SDS011;53133;52.862;6.602;2022-09-02T02:10:07;1.73;;;1.20;;
66327;SDS011;53133;52.862;6.602;2022-09-02T02:12:35;3.10;;;1.50;;
66327;SDS011;53133;52.862;6.602;2022-09-02T02:15:02;3.08;;;1.40;;
66327;SDS011;53133;52.862;6.602;2022-09-02T02:17:30;2.80;;;1.58;;
66327;SDS011;53133;52.862;6.602;2022-09-02T02:19:56;2.97;;;1.40;;
66327;SDS011;53133;52.862;6.602;2022-09-02T02:22:21;2.75;;;1.40;;
66327;SDS011;53133;52.862;6.602;2022-09-02T02:24:47;2.38;;;1.60;;
66327;SDS011;53133;52.862;6.602;2022-09-02T02:27:12;1.70;;;1.50;;
66327;SDS011;53133;52.862;6.602;2022-09-02T02:29:38;2.42;;;1.50;;
66327;SDS011;53133;52.862;6.602;2022-09-02T02:32:04;3.53;;;1.30;;
66327;SDS011;53133;52.862;6.602;2022-09-02T02:34:31;2.20;;;1.70;;
66327;SDS011;53133;52.862;6.602;2022-09-02T02:36:57;2.13;;;1.75;;
66327;SDS011;53133;52.862;6.602;2022-09-02T02:39:23;3.17;;;1.45;;
66327;SDS011;53133;52.862;6.602;2022-09-02T02:41:48;4.22;;;1.70;;
66327;SDS011;53133;52.862;6.602;2022-09-02T02:44:14;2.78;;;1.58;;
66327;SDS011;53133;52.862;6.602;2022-09-02T02:46:39;2.60;;;1.77;;
66327;SDS011;53133;52.862;6.602;2022-09-02T02:49:05;2.22;;;1.70;;
66327;SDS011;53133;52.862;6.602;2022-09-02T02:51:32;2.80;;;1.67;;
66327;SDS011;53133;52.862;6.602;2022-09-02T02:53:59;2.85;;;1.38;;
66327;SDS011;53133;52.862;6.602;2022-09-02T02:56:25;2.75;;;1.40;;
66327;SDS011;53133;52.862;6.602;2022-09-02T02:58:52;1.90;;;1.70;;
66327;SDS011;53133;52.862;6.602;2022-09-02T03:01:18;3.40;;;1.90;;
66327;SDS011;53133;52.862;6.602;2022-09-02T03:03:43;2.45;;;1.40;;
66327;SDS011;53133;52.862;6.602;2022-09-02T03:06:09;1.90;;;1.70;;
66327;SDS011;53133;52.862;6.602;2022-09-02T03:08:34;3.13;;;1.58;;
66327;SDS011;53133;52.862;6.602;2022-09-02T03:11:01;3.13;;;1.60;;
66327;SDS011;53133;52.862;6.602;2022-09-02T03:13:28;3.03;;;1.50;;
66327;SDS011;53133;52.862;6.602;2022-09-02T03:15:53;1.88;;;1.67;;
66327;SDS011;53133;52.862;6.602;2022-09-02T03:18:19;1.98;;;1.67;;
66327;SDS011;53133;52.862;6.602;2022-09-02T03:20:44;1.58;;;1.48;;
66327;SDS011;53133;52.862;6.602;2022-09-02T03:23:10;1.85;;;1.50;;
66327;SDS011;53133;52.862;6.602;2022-09-02T03:25:40;2.60;;;1.63;;
66327;SDS011;53133;52.862;6.602;2022-09-02T03:28:07;3.15;;;1.80;;
66327;SDS011;53133;52.862;6.602;2022-09-02T03:30:34;2.10;;;1.40;;
66327;SDS011;53133;52.862;6.602;2022-09-02T03:33:00;4.88;;;1.70;;
66327;SDS011;53133;52.862;6.602;2022-09-02T03:35:28;2.67;;;1.70;;
66327;SDS011;53133;52.862;6.602;2022-09-02T03:37:54;1.98;;;1.80;;
66327;SDS011;53133;52.862;6.602;2022-09-02T03:40:23;2.15;;;1.80;;
66327;SDS011;53133;52.862;6.602;2022-09-02T03:42:51;2.40;;;1.95;;
66327;SDS011;53133;52.862;6.602;2022-09-02T03:45:17;2.28;;;1.80;;
66327;SDS011;53133;52.862;6.602;2022-09-02T03:47:44;4.07;;;1.90;;
66327;SDS011;53133;52.862;6.602;2022-09-02T03:50:19;2.35;;;1.60;;
66327;SDS011;53133;52.862;6.602;2022-09-02T03:52:47;2.28;;;1.67;;
66327;SDS011;53133;52.862;6.602;2022-09-02T03:55:13;3.30;;;1.85;;
66327;SDS011;53133;52.862;6.602;2022-09-02T03:57:38;1.90;;;1.67;;
66327;SDS011;53133;52.862;6.602;2022-09-02T04:00:05;2.22;;;1.60;;
66327;SDS011;53133;52.862;6.602;2022-09-02T04:02:33;1.73;;;1.63;;
66327;SDS011;53133;52.862;6.602;2022-09-02T04:04:58;3.50;;;1.80;;
66327;SDS011;53133;52.862;6.602;2022-09-02T04:07:24;2.22;;;1.63;;
66327;SDS011;53133;52.862;6.602;2022-09-02T04:09:49;2.17;;;1.98;;
66327;SDS011;53133;52.862;6.602;2022-09-02T04:12:15;4.43;;;2.20;;
66327;SDS011;53133;52.862;6.602;2022-09-02T04:14:41;2.63;;;1.88;;
66327;SDS011;53133;52.862;6.602;2022-09-02T04:17:06;4.95;;;2.22;;
66327;SDS011;53133;52.862;6.602;2022-09-02T04:19:32;2.97;;;1.95;;
66327;SDS011;53133;52.862;6.602;2022-09-02T04:21:57;3.97;;;1.95;;
66327;SDS011;53133;52.862;6.602;2022-09-02T04:24:23;3.72;;;1.80;;
66327;SDS011;53133;52.862;6.602;2022-09-02T04:26:49;2.85;;;1.95;;
66327;SDS011;53133;52.862;6.602;2022-09-02T04:29:15;2.33;;;1.98;;
66327;SDS011;53133;52.862;6.602;2022-09-02T04:31:41;3.97;;;2.30;;
66327;SDS011;53133;52.862;6.602;2022-09-02T04:34:07;3.75;;;1.98;;
66327;SDS011;53133;52.862;6.602;2022-09-02T04:36:33;1.85;;;1.65;;
66327;SDS011;53133;52.862;6.602;2022-09-02T04:38:58;2.80;;;1.80;;
66327;SDS011;53133;52.862;6.602;2022-09-02T04:41:26;2.08;;;1.90;;
66327;SDS011;53133;52.862;6.602;2022-09-02T04:43:54;3.17;;;1.77;;
66327;SDS011;53133;52.862;6.602;2022-09-02T04:46:21;3.00;;;2.25;;
66327;SDS011;53133;52.862;6.602;2022-09-02T04:48:47;2.10;;;1.90;;
66327;SDS011;53133;52.862;6.602;2022-09-02T04:51:17;3.70;;;2.33;;
66327;SDS011;53133;52.862;6.602;2022-09-02T04:53:45;3.42;;;1.88;;
66327;SDS011;53133;52.862;6.602;2022-09-02T04:56:13;2.53;;;1.58;;
66327;SDS011;53133;52.862;6.602;2022-09-02T04:58:40;2.33;;;2.08;;
66327;SDS011;53133;52.862;6.602;2022-09-02T05:01:09;3.22;;;1.90;;
66327;SDS011;53133;52.862;6.602;2022-09-02T05:03:38;4.45;;;2.10;;
66327;SDS011;53133;52.862;6.602;2022-09-02T05:06:05;3.70;;;1.92;;
66327;SDS011;53133;52.862;6.602;2022-09-02T05:08:32;3.45;;;1.90;;
66327;SDS011;53133;52.862;6.602;2022-09-02T05:11:00;3.38;;;2.00;;
66327;SDS011;53133;52.862;6.602;2022-09-02T05:13:32;3.22;;;2.10;;
66327;SDS011;53133;52.862;6.602;2022-09-02T05:15:58;3.88;;;2.10;;
66327;SDS011;53133;52.862;6.602;2022-09-02T05:18:24;2.95;;;2.08;;
66327;SDS011;53133;52.862;6.602;2022-09-02T05:20:50;2.78;;;2.00;;
66327;SDS011;53133;52.862;6.602;2022-09-02T05:23:16;3.10;;;1.90;;
66327;SDS011;53133;52.862;6.602;2022-09-02T05:25:41;3.22;;;2.28;;
66327;SDS011;53133;52.862;6.602;2022-09-02T05:28:07;2.80;;;1.80;;
66327;SDS011;53133;52.862;6.602;2022-09-02T05:30:36;4.10;;;2.00;;
66327;SDS011;53133;52.862;6.602;2022-09-02T05:33:03;9.93;;;2.40;;
66327;SDS011;53133;52.862;6.602;2022-09-02T05:35:29;2.25;;;1.80;;
66327;SDS011;53133;52.862;6.602;2022-09-02T05:37:55;2.95;;;1.80;;
66327;SDS011;53133;52.862;6.602;2022-09-02T05:40:21;4.63;;;2.10;;
66327;SDS011;53133;52.862;6.602;2022-09-02T05:42:47;2.25;;;2.03;;
66327;SDS011;53133;52.862;6.602;2022-09-02T05:45:12;4.93;;;2.22;;
66327;SDS011;53133;52.862;6.602;2022-09-02T05:47:38;5.88;;;1.90;;
66327;SDS011;53133;52.862;6.602;2022-09-02T05:50:04;2.33;;;2.03;;
66327;SDS011;53133;52.862;6.602;2022-09-02T05:52:31;3.42;;;1.80;;
66327;SDS011;53133;52.862;6.602;2022-09-02T05:54:57;2.70;;;2.13;;
66327;SDS011;53133;52.862;6.602;2022-09-02T05:57:24;3.08;;;2.17;;
66327;SDS011;53133;52.862;6.602;2022-09-02T05:59:50;3.20;;;2.22;;
66327;SDS011;53133;52.862;6.602;2022-09-02T06:02:20;6.30;;;2.28;;
66327;SDS011;53133;52.862;6.602;2022-09-02T06:04:48;4.18;;;2.05;;
66327;SDS011;53133;52.862;6.602;2022-09-02T06:07:16;5.45;;;2.10;;
66327;SDS011;53133;52.862;6.602;2022-09-02T06:09:43;2.95;;;2.25;;
66327;SDS011;53133;52.862;6.602;2022-09-02T06:12:09;3.20;;;2.33;;
66327;SDS011;53133;52.862;6.602;2022-09-02T06:14:36;4.28;;;2.15;;
66327;SDS011;53133;52.862;6.602;2022-09-02T06:17:02;3.38;;;2.20;;
66327;SDS011;53133;52.862;6.602;2022-09-02T06:19:29;3.03;;;2.30;;
66327;SDS011;53133;52.862;6.602;2022-09-02T06:21:57;3.35;;;2.40;;
66327;SDS011;53133;52.862;6.602;2022-09-02T06:24:23;4.07;;;2.40;;
66327;SDS011;53133;52.862;6.602;2022-09-02T06:26:50;3.70;;;2.40;;
66327;SDS011;53133;52.862;6.602;2022-09-02T06:29:17;3.75;;;2.28;;
66327;SDS011;53133;52.862;6.602;2022-09-02T06:31:44;5.18;;;2.42;;
66327;SDS011;53133;52.862;6.602;2022-09-02T06:34:12;3.20;;;2.10;;
66327;SDS011;53133;52.862;6.602;2022-09-02T06:36:41;3.28;;;2.53;;
66327;SDS011;53133;52.862;6.602;2022-09-02T06:39:10;3.00;;;2.38;;
66327;SDS011;53133;52.862;6.602;2022-09-02T06:41:37;3.83;;;2.60;;
66327;SDS011;53133;52.862;6.602;2022-09-02T06:44:04;5.55;;;2.40;;
66327;SDS011;53133;52.862;6.602;2022-09-02T06:46:36;7.82;;;2.55;;
66327;SDS011;53133;52.862;6.602;2022-09-02T06:49:04;4.63;;;2.78;;
66327;SDS011;53133;52.862;6.602;2022-09-02T06:51:41;2.80;;;2.10;;
66327;SDS011;53133;52.862;6.602;2022-09-02T06:54:09;3.40;;;2.40;;
66327;SDS011;53133;52.862;6.602;2022-09-02T06:56:38;4.28;;;2.20;;
66327;SDS011;53133;52.862;6.602;2022-09-02T06:59:04;4.72;;;2.40;;
66327;SDS011;53133;52.862;6.602;2022-09-02T07:01:31;4.32;;;2.10;;
66327;SDS011;53133;52.862;6.602;2022-09-02T07:03:58;3.03;;;2.30;;
66327;SDS011;53133;52.862;6.602;2022-09-02T07:06:45;3.22;;;2.33;;
66327;SDS011;53133;52.862;6.602;2022-09-02T07:09:13;3.40;;;2.17;;
66327;SDS011;53133;52.862;6.602;2022-09-02T07:11:41;3.78;;;2.40;;
66327;SDS011;53133;52.862;6.602;2022-09-02T07:14:07;4.20;;;2.30;;
66327;SDS011;53133;52.862;6.602;2022-09-02T07:16:35;5.97;;;2.60;;
66327;SDS011;53133;52.862;6.602;2022-09-02T07:19:06;5.25;;;2.53;;
66327;SDS011;53133;52.862;6.602;2022-09-02T07:21:31;2.50;;;2.30;;
66327;SDS011;53133;52.862;6.602;2022-09-02T07:23:57;3.38;;;2.60;;
66327;SDS011;53133;52.862;6.602;2022-09-02T07:26:24;3.13;;;2.55;;
66327;SDS011;53133;52.862;6.602;2022-09-02T07:28:50;3.00;;;2.03;;
66327;SDS011;53133;52.862;6.602;2022-09-02T07:31:16;3.13;;;2.08;;
66327;SDS011;53133;52.862;6.602;2022-09-02T07:33:43;3.40;;;2.33;;
66327;SDS011;53133;52.862;6.602;2022-09-02T07:36:09;3.58;;;2.20;;
66327;SDS011;53133;52.862;6.602;2022-09-02T07:38:37;3.30;;;2.03;;
66327;SDS011;53133;52.862;6.602;2022-09-02T07:41:04;2.40;;;2.03;;
66327;SDS011;53133;52.862;6.602;2022-09-02T07:43:30;4.10;;;2.20;;
66327;SDS011;53133;52.862;6.602;2022-09-02T07:45:57;5.45;;;2.15;;
66327;SDS011;53133;52.862;6.602;2022-09-02T07:48:24;5.25;;;1.98;;
66327;SDS011;53133;52.862;6.602;2022-09-02T07:50:51;4.38;;;2.00;;
66327;SDS011;53133;52.862;6.602;2022-09-02T07:53:16;3.92;;;2.13;;
66327;SDS011;53133;52.862;6.602;2022-09-02T07:55:43;3.97;;;2.28;;
66327;SDS011;53133;52.862;6.602;2022-09-02T07:58:10;4.13;;;1.88;;
66327;SDS011;53133;52.862;6.602;2022-09-02T08:00:37;4.38;;;2.03;;
66327;SDS011;53133;52.862;6.602;2022-09-02T08:03:04;4.10;;;1.85;;
66327;SDS011;53133;52.862;6.602;2022-09-02T08:05:30;3.45;;;1.90;;
66327;SDS011;53133;52.862;6.602;2022-09-02T08:07:57;2.80;;;1.90;;
66327;SDS011;53133;52.862;6.602;2022-09-02T08:10:24;4.57;;;2.03;;
66327;SDS011;53133;52.862;6.602;2022-09-02T08:12:53;2.83;;;1.70;;
66327;SDS011;53133;52.862;6.602;2022-09-02T08:15:20;2.72;;;1.92;;
66327;SDS011;53133;52.862;6.602;2022-09-02T08:17:46;3.95;;;2.00;;
66327;SDS011;53133;52.862;6.602;2022-09-02T08:20:13;2.00;;;1.80;;
66327;SDS011;53133;52.862;6.602;2022-09-02T08:22:41;4.78;;;2.03;;
66327;SDS011;53133;52.862;6.602;2022-09-02T08:25:07;7.13;;;1.98;;
66327;SDS011;53133;52.862;6.602;2022-09-02T08:27:34;5.10;;;1.90;;
66327;SDS011;53133;52.862;6.602;2022-09-02T08:30:00;6.05;;;1.90;;
66327;SDS011;53133;52.862;6.602;2022-09-02T08:32:29;3.58;;;1.95;;
66327;SDS011;53133;52.862;6.602;2022-09-02T08:34:57;1.92;;;1.70;;
66327;SDS011;53133;52.862;6.602;2022-09-02T08:37:26;2.72;;;1.77;;
66327;SDS011;53133;52.862;6.602;2022-09-02T08:39:52;6.30;;;1.90;;
66327;SDS011;53133;52.862;6.602;2022-09-02T08:42:31;7.22;;;2.15;;
66327;SDS011;53133;52.862;6.602;2022-09-02T08:47:34;4.53;;;1.70;;
66327;SDS011;53133;52.862;6.602;2022-09-02T08:50:14;5.13;;;2.10;;
66327;SDS011;53133;52.862;6.602;2022-09-02T08:55:32;3.83;;;1.80;;
66327;SDS011;53133;52.862;6.602;2022-09-02T08:58:06;3.10;;;1.92;;
66327;SDS011;53133;52.862;6.602;2022-09-02T09:00:34;4.40;;;1.50;;
66327;SDS011;53133;52.862;6.602;2022-09-02T09:03:17;2.85;;;1.70;;
66327;SDS011;53133;52.862;6.602;2022-09-02T09:06:14;3.83;;;1.67;;
66327;SDS011;53133;52.862;6.602;2022-09-02T09:08:50;4.50;;;1.90;;
66327;SDS011;53133;52.862;6.602;2022-09-02T09:11:39;2.45;;;1.70;;
66327;SDS011;53133;52.862;6.602;2022-09-02T09:17:06;6.72;;;1.88;;
66327;SDS011;53133;52.862;6.602;2022-09-02T09:19:46;3.97;;;1.77;;
66327;SDS011;53133;52.862;6.602;2022-09-02T09:22:30;4.90;;;1.80;;
66327;SDS011;53133;52.862;6.602;2022-09-02T09:24:57;2.53;;;1.52;;
66327;SDS011;53133;52.862;6.602;2022-09-02T09:27:23;2.53;;;1.42;;
66327;SDS011;53133;52.862;6.602;2022-09-02T09:29:50;5.45;;;1.52;;
66327;SDS011;53133;52.862;6.602;2022-09-02T09:32:21;4.20;;;1.60;;
66327;SDS011;53133;52.862;6.602;2022-09-02T09:43:30;4.37;;;1.60;;
66327;SDS011;53133;52.862;6.602;2022-09-02T09:56:05;4.03;;;1.58;;
66327;SDS011;53133;52.862;6.602;2022-09-02T10:03:40;1.92;;;1.15;;
66327;SDS011;53133;52.862;6.602;2022-09-02T10:06:21;4.28;;;1.48;;
66327;SDS011;53133;52.862;6.602;2022-09-02T10:08:50;1.45;;;1.20;;
66327;SDS011;53133;52.862;6.602;2022-09-02T10:11:21;2.60;;;1.42;;
66327;SDS011;53133;52.862;6.602;2022-09-02T10:13:57;5.75;;;1.27;;
66327;SDS011;53133;52.862;6.602;2022-09-02T10:27:36;2.67;;;1.48;;
66327;SDS011;53133;52.862;6.602;2022-09-02T10:30:10;3.03;;;1.23;;
66327;SDS011;53133;52.862;6.602;2022-09-02T10:40:51;2.63;;;1.20;;
66327;SDS011;53133;52.862;6.602;2022-09-02T10:43:52;4.60;;;1.15;;
66327;SDS011;53133;52.862;6.602;2022-09-02T10:46:26;4.35;;;1.10;;
66327;SDS011;53133;52.862;6.602;2022-09-02T10:51:42;2.33;;;1.05;;
66327;SDS011;53133;52.862;6.602;2022-09-02T10:54:24;2.95;;;0.98;;
66327;SDS011;53133;52.862;6.602;2022-09-02T10:57:16;2.35;;;1.10;;
66327;SDS011;53133;52.862;6.602;2022-09-02T11:02:20;2.88;;;1.00;;
66327;SDS011;53133;52.862;6.602;2022-09-02T11:04:57;4.53;;;1.00;;
66327;SDS011;53133;52.862;6.602;2022-09-02T11:09:55;1.83;;;1.00;;
66327;SDS011;53133;52.862;6.602;2022-09-02T11:12:31;3.55;;;1.20;;
66327;SDS011;53133;52.862;6.602;2022-09-02T11:15:08;1.67;;;1.00;;
66327;SDS011;53133;52.862;6.602;2022-09-02T11:17:48;4.43;;;1.10;;
66327;SDS011;53133;52.862;6.602;2022-09-02T11:25:38;1.35;;;1.00;;
66327;SDS011;53133;52.862;6.602;2022-09-02T11:31:25;4.68;;;1.20;;
66327;SDS011;53133;52.862;6.602;2022-09-02T11:34:16;3.95;;;1.30;;
66327;SDS011;53133;52.862;6.602;2022-09-02T11:36:58;4.70;;;1.45;;
66327;SDS011;53133;52.862;6.602;2022-09-02T11:47:34;8.68;;;1.35;;
66327;SDS011;53133;52.862;6.602;2022-09-02T11:52:50;3.30;;;1.38;;
66327;SDS011;53133;52.862;6.602;2022-09-02T11:55:39;7.55;;;1.60;;
66327;SDS011;53133;52.862;6.602;2022-09-02T11:58:10;2.55;;;1.45;;
66327;SDS011;53133;52.862;6.602;2022-09-02T12:03:28;3.13;;;1.33;;
66327;SDS011;53133;52.862;6.602;2022-09-02T12:06:03;2.88;;;1.20;;
66327;SDS011;53133;52.862;6.602;2022-09-02T12:09:03;4.85;;;1.48;;
66327;SDS011;53133;52.862;6.602;2022-09-02T12:14:02;5.25;;;1.50;;
66327;SDS011;53133;52.862;6.602;2022-09-02T12:21:25;2.28;;;1.40;;
66327;SDS011;53133;52.862;6.602;2022-09-02T12:28:52;2.90;;;1.38;;
66327;SDS011;53133;52.862;6.602;2022-09-02T12:31:41;1.85;;;1.13;;
66327;SDS011;53133;52.862;6.602;2022-09-02T12:36:47;2.25;;;1.58;;
66327;SDS011;53133;52.862;6.602;2022-09-02T12:47:46;4.05;;;1.40;;
66327;SDS011;53133;52.862;6.602;2022-09-02T12:53:24;4.43;;;1.35;;
66327;SDS011;53133;52.862;6.602;2022-09-02T12:55:59;2.78;;;1.65;;
66327;SDS011;53133;52.862;6.602;2022-09-02T12:58:49;2.28;;;1.63;;
66327;SDS011;53133;52.862;6.602;2022-09-02T13:04:26;3.78;;;1.38;;
66327;SDS011;53133;52.862;6.602;2022-09-02T13:15:54;5.80;;;1.65;;
66327;SDS011;53133;52.862;6.602;2022-09-02T13:18:44;4.28;;;1.40;;
66327;SDS011;53133;52.862;6.602;2022-09-02T13:24:14;2.38;;;1.45;;
66327;SDS011;53133;52.862;6.602;2022-09-02T13:32:14;2.95;;;1.80;;
66327;SDS011;53133;52.862;6.602;2022-09-02T13:34:47;5.50;;;1.50;;
66327;SDS011;53133;52.862;6.602;2022-09-02T13:40:04;3.88;;;1.80;;
66327;SDS011;53133;52.862;6.602;2022-09-02T13:42:49;4.22;;;1.83;;
66327;SDS011;53133;52.862;6.602;2022-09-02T13:47:48;10.55;;;1.70;;
66327;SDS011;53133;52.862;6.602;2022-09-02T13:50:22;5.82;;;1.80;;
66327;SDS011;53133;52.862;6.602;2022-09-02T13:52:54;3.08;;;1.55;;
66327;SDS011;53133;52.862;6.602;2022-09-02T13:57:55;2.00;;;1.70;;
66327;SDS011;53133;52.862;6.602;2022-09-02T14:00:27;4.03;;;1.80;;
66327;SDS011;53133;52.862;6.602;2022-09-02T14:03:03;2.50;;;1.50;;
66327;SDS011;53133;52.862;6.602;2022-09-02T14:05:31;3.03;;;1.70;;
66327;SDS011;53133;52.862;6.602;2022-09-02T14:08:00;3.40;;;2.00;;
66327;SDS011;53133;52.862;6.602;2022-09-02T14:10:29;2.75;;;1.77;;
66327;SDS011;53133;52.862;6.602;2022-09-02T14:12:57;3.67;;;1.80;;
66327;SDS011;53133;52.862;6.602;2022-09-02T14:15:28;4.30;;;1.58;;
66327;SDS011;53133;52.862;6.602;2022-09-02T14:20:38;4.53;;;1.88;;
66327;SDS011;53133;52.862;6.602;2022-09-02T14:23:16;3.65;;;1.77;;
66327;SDS011;53133;52.862;6.602;2022-09-02T14:25:47;3.70;;;1.77;;
66327;SDS011;53133;52.862;6.602;2022-09-02T14:28:20;2.35;;;1.70;;
66327;SDS011;53133;52.862;6.602;2022-09-02T14:31:00;3.22;;;1.60;;
66327;SDS011;53133;52.862;6.602;2022-09-02T14:33:41;2.83;;;1.70;;
66327;SDS011;53133;52.862;6.602;2022-09-02T14:36:11;3.38;;;1.90;;
66327;SDS011;53133;52.862;6.602;2022-09-02T14:39:11;2.95;;;1.63;;
66327;SDS011;53133;52.862;6.602;2022-09-02T14:41:57;2.97;;;1.60;;
66327;SDS011;53133;52.862;6.602;2022-09-02T14:47:02;6.15;;;1.85;;
66327;SDS011;53133;52.862;6.602;2022-09-02T14:49:31;3.03;;;1.90;;
66327;SDS011;53133;52.862;6.602;2022-09-02T14:52:02;4.05;;;1.73;;
66327;SDS011;53133;52.862;6.602;2022-09-02T14:57:27;6.38;;;2.03;;
66327;SDS011;53133;52.862;6.602;2022-09-02T14:59:54;5.53;;;1.83;;
66327;SDS011;53133;52.862;6.602;2022-09-02T15:04:48;2.42;;;1.85;;
66327;SDS011;53133;52.862;6.602;2022-09-02T15:07:14;3.13;;;1.98;;
66327;SDS011;53133;52.862;6.602;2022-09-02T15:09:40;3.55;;;1.90;;
66327;SDS011;53133;52.862;6.602;2022-09-02T15:12:08;4.35;;;1.92;;
66327;SDS011;53133;52.862;6.602;2022-09-02T15:14:34;3.83;;;1.88;;
66327;SDS011;53133;52.862;6.602;2022-09-02T15:17:00;3.08;;;1.83;;
66327;SDS011;53133;52.862;6.602;2022-09-02T15:19:28;3.92;;;2.25;;
66327;SDS011;53133;52.862;6.602;2022-09-02T15:21:53;2.92;;;1.63;;
66327;SDS011;53133;52.862;6.602;2022-09-02T15:24:19;3.67;;;1.80;;
66327;SDS011;53133;52.862;6.602;2022-09-02T15:26:45;3.00;;;1.30;;
66327;SDS011;53133;52.862;6.602;2022-09-02T15:29:10;2.80;;;1.83;;
66327;SDS011;53133;52.862;6.602;2022-09-02T15:31:37;2.42;;;1.80;;
66327;SDS011;53133;52.862;6.602;2022-09-02T15:34:03;4.60;;;1.67;;
66327;SDS011;53133;52.862;6.602;2022-09-02T15:36:28;4.00;;;1.63;;
66327;SDS011;53133;52.862;6.602;2022-09-02T15:38:55;1.50;;;1.40;;
66327;SDS011;53133;52.862;6.602;2022-09-02T15:41:22;4.40;;;1.70;;
66327;SDS011;53133;52.862;6.602;2022-09-02T15:43:50;2.60;;;1.80;;
66327;SDS011;53133;52.862;6.602;2022-09-02T15:46:26;2.67;;;1.63;;
66327;SDS011;53133;52.862;6.602;2022-09-02T15:48:58;2.88;;;1.63;;
66327;SDS011;53133;52.862;6.602;2022-09-02T15:51:25;5.13;;;1.77;;
66327;SDS011;53133;52.862;6.602;2022-09-02T15:53:58;2.35;;;1.90;;
66327;SDS011;53133;52.862;6.602;2022-09-02T15:56:26;2.40;;;1.98;;
66327;SDS011;53133;52.862;6.602;2022-09-02T15:58:57;4.63;;;1.90;;
66327;SDS011;53133;52.862;6.602;2022-09-02T16:03:50;3.50;;;1.75;;
66327;SDS011;53133;52.862;6.602;2022-09-02T16:06:16;4.32;;;1.73;;
66327;SDS011;53133;52.862;6.602;2022-09-02T16:08:41;4.30;;;1.60;;
66327;SDS011;53133;52.862;6.602;2022-09-02T16:11:07;4.00;;;1.90;;
66327;SDS011;53133;52.862;6.602;2022-09-02T16:13:36;4.10;;;1.83;;
66327;SDS011;53133;52.862;6.602;2022-09-02T16:16:05;3.13;;;1.80;;
66327;SDS011;53133;52.862;6.602;2022-09-02T16:18:33;3.42;;;1.70;;
66327;SDS011;53133;52.862;6.602;2022-09-02T16:21:00;2.63;;;1.70;;
66327;SDS011;53133;52.862;6.602;2022-09-02T16:23:25;5.15;;;1.90;;
66327;SDS011;53133;52.862;6.602;2022-09-02T16:28:49;2.78;;;1.80;;
66327;SDS011;53133;52.862;6.602;2022-09-02T16:31:17;3.67;;;1.80;;
66327;SDS011;53133;52.862;6.602;2022-09-02T16:33:50;2.35;;;1.73;;
66327;SDS011;53133;52.862;6.602;2022-09-02T16:36:17;8.00;;;1.98;;
66327;SDS011;53133;52.862;6.602;2022-09-02T16:38:43;4.13;;;1.70;;
66327;SDS011;53133;52.862;6.602;2022-09-02T16:41:22;3.75;;;1.70;;
66327;SDS011;53133;52.862;6.602;2022-09-02T16:43:51;5.40;;;1.77;;
66327;SDS011;53133;52.862;6.602;2022-09-02T16:46:21;3.20;;;2.10;;
66327;SDS011;53133;52.862;6.602;2022-09-02T16:48:47;3.05;;;1.70;;
66327;SDS011;53133;52.862;6.602;2022-09-02T16:51:13;3.72;;;1.80;;
66327;SDS011;53133;52.862;6.602;2022-09-02T16:53:39;4.00;;;1.95;;
66327;SDS011;53133;52.862;6.602;2022-09-02T16:56:05;2.70;;;1.75;;
66327;SDS011;53133;52.862;6.602;2022-09-02T16:58:34;2.88;;;1.83;;
66327;SDS011;53133;52.862;6.602;2022-09-02T17:01:02;6.13;;;1.77;;
66327;SDS011;53133;52.862;6.602;2022-09-02T17:03:30;2.10;;;1.83;;
66327;SDS011;53133;52.862;6.602;2022-09-02T17:05:56;4.72;;;1.98;;
66327;SDS011;53133;52.862;6.602;2022-09-02T17:08:22;4.07;;;1.80;;
66327;SDS011;53133;52.862;6.602;2022-09-02T17:10:48;2.72;;;1.85;;
66327;SDS011;53133;52.862;6.602;2022-09-02T17:13:13;2.80;;;1.92;;
66327;SDS011;53133;52.862;6.602;2022-09-02T17:15:39;2.60;;;2.20;;
66327;SDS011;53133;52.862;6.602;2022-09-02T17:18:04;3.88;;;1.83;;
66327;SDS011;53133;52.862;6.602;2022-09-02T17:20:30;3.47;;;2.17;;
66327;SDS011;53133;52.862;6.602;2022-09-02T17:22:56;3.55;;;2.20;;
66327;SDS011;53133;52.862;6.602;2022-09-02T17:25:21;4.22;;;2.50;;
66327;SDS011;53133;52.862;6.602;2022-09-02T17:27:47;4.85;;;2.50;;
66327;SDS011;53133;52.862;6.602;2022-09-02T17:30:13;3.45;;;1.98;;
66327;SDS011;53133;52.862;6.602;2022-09-02T17:32:39;3.92;;;2.00;;